No 32takemaru — JG5746 — position and weather

sailwx.info

Track history (hours):
 
Tides and Currents Weather Stations Pressure Air Temp Water Temp Dewpoint Dewpoint Depression Visibility Wind Speed Wind Dir Waves Ship Positions

No 32takemaru

Last reported at 2019-Feb-23 00:00 UTC. Time now 2019-Feb-23 00:22 UTC.
Position N 34°33' E 135°25'.

Length 38 m; draft 2.8 m.

Type: Tug. MMSI: 431000341.

Date/timePositionNaut miles runAvg speedWind from/ knotsBaromVisibWave heightAir tempDewpointWater temp
2019-Feb-23 00:00N 34°33' E 135°25'3 5.5
2019-Feb-22 23:30N 34°33' E 135°21'2 4.5
2019-Feb-22 23:00N 34°34' E 135°19'1 2.4
2019-Feb-22 22:31N 34°35' E 135°20'5 9.7
2019-Feb-22 22:00N 34°38' E 135°24'3 0.2
2019-Feb-22 09:06N 34°39' E 135°28'1 8.1
2019-Feb-22 09:00N 34°39' E 135°27'4 9.0
2019-Feb-22 08:30N 34°35' E 135°23'5 8.4
2019-Feb-22 07:57N 34°31' E 135°23'1 1.9
2019-Feb-22 07:30N 34°31' E 135°24'1 0.1
2019-Feb-22 02:55N 34°32' E 135°24'2 0.7
2019-Feb-22 00:44N 34°33' E 135°24'1 3.7
2019-Feb-22 00:29N 34°33' E 135°23'3 6.8
2019-Feb-22 00:00N 34°34' E 135°19'0 0.7
2019-Feb-21 23:30N 34°34' E 135°19'610.6
2019-Feb-21 22:59N 34°38' E 135°24'3 2.6
2019-Feb-21 21:40N 34°39' E 135°28'0 0.0
2019-Feb-21 21:30N 34°39' E 135°28'0 0.0
2019-Feb-21 08:48N 34°39' E 135°28'3 9.5
2019-Feb-21 08:30N 34°39' E 135°25'510.4
2019-Feb-21 08:01N 34°34' E 135°23'1 1.4
2019-Feb-21 06:57N 34°34' E 135°24'2 3.7
2019-Feb-21 06:31N 34°35' E 135°24'4 7.8
2019-Feb-21 06:00N 34°39' E 135°26'1 0.3
2019-Feb-21 00:57N 34°39' E 135°28'0 0.0
2019-Feb-21 00:28N 34°39' E 135°28'0 0.0
2019-Feb-20 09:01N 34°39' E 135°28'0 7.9
2019-Feb-20 09:01N 34°39' E 135°28'2 3.9
2019-Feb-20 08:31N 34°39' E 135°25'2 3.1
2019-Feb-20 08:01N 34°38' E 135°24'2 3.1
2019-Feb-20 07:31N 34°37' E 135°24'1 1.3
2019-Feb-20 06:59N 34°36' E 135°24'0 0.0
2019-Feb-20 06:31N 34°36' E 135°24'0 0.0
2019-Feb-20 05:58N 34°36' E 135°24'0 0.0
2019-Feb-20 05:31N 34°36' E 135°24'2 4.3
2019-Feb-20 05:01N 34°35' E 135°26'1 1.3
2019-Feb-20 04:29N 34°35' E 135°25'0 0.4
2019-Feb-20 03:52N 34°35' E 135°25'5 5.3
2019-Feb-20 03:01N 34°39' E 135°25'4 8.1
2019-Feb-20 02:30N 34°35' E 135°24'2 1.1
2019-Feb-20 00:30N 34°33' E 135°25'3 6.5
2019-Feb-20 00:01N 34°33' E 135°21'1 2.7
2019-Feb-19 23:30N 34°34' E 135°20'2 4.7
2019-Feb-19 23:00N 34°36' E 135°22'5 9.6
2019-Feb-19 22:30N 34°39' E 135°26'1 0.1
2019-Feb-19 08:55N 34°39' E 135°28'0 0.0
2019-Feb-19 00:12N 34°39' E 135°28'2 9.1
2019-Feb-19 00:00N 34°39' E 135°26'5 9.7
2019-Feb-18 23:31N 34°34' E 135°23'4 4.6
2019-Feb-18 22:44N 34°31' E 135°23'1 4.2
2019-Feb-18 22:28N 34°32' E 135°23'1 2.2
2019-Feb-18 21:59N 34°33' E 135°22'0 0.4
2019-Feb-18 21:26N 34°33' E 135°22'3 7.0
2019-Feb-18 21:00N 34°36' E 135°23'4 8.8
2019-Feb-18 20:31N 34°39' E 135°27'1 0.1
2019-Feb-18 08:58N 34°39' E 135°28'4 8.9
2019-Feb-18 08:31N 34°37' E 135°23'611.4
2019-Feb-18 08:00N 34°32' E 135°23'1 1.6
2019-Feb-18 07:31N 34°31' E 135°23'0 0.2
2019-Feb-18 06:31N 34°31' E 135°23'0 0.4
2019-Feb-18 05:59N 34°31' E 135°23'2 1.6
2019-Feb-18 04:28N 34°33' E 135°25'1 1.4
2019-Feb-18 03:54N 34°33' E 135°25'3 8.0
2019-Feb-18 03:31N 34°33' E 135°21'2 3.5
2019-Feb-18 03:00N 34°34' E 135°19'4 8.5
2019-Feb-18 02:30N 34°33' E 135°24'1 1.6
2019-Feb-18 01:40N 34°33' E 135°26'1 7.6
2019-Feb-18 01:30N 34°33' E 135°24'5 9.9
2019-Feb-18 01:00N 34°38' E 135°24'4 0.2
2019-Feb-17 06:36N 34°39' E 135°28'0 0.0
2019-Feb-17 05:11N 34°39' E 135°28'0 0.0
2019-Feb-17 04:31N 34°39' E 135°28'0 0.0
2019-Feb-17 04:31N 34°39' E 135°28'3 6.3
2019-Feb-17 04:01N 34°38' E 135°24'0 0.5
2019-Feb-17 03:30N 34°38' E 135°24'1 1.9
2019-Feb-17 03:01N 34°37' E 135°23'1 1.9
2019-Feb-17 02:28N 34°36' E 135°24'0 0.0
2019-Feb-17 01:58N 34°36' E 135°24'0 0.0
2019-Feb-17 00:26N 34°36' E 135°24'1 2.4
2019-Feb-17 00:00N 34°35' E 135°24'2 2.0
2019-Feb-16 22:49N 34°33' E 135°25'1 3.0
2019-Feb-16 22:31N 34°33' E 135°24'3 6.2
2019-Feb-16 22:01N 34°33' E 135°21'0 0.8
2019-Feb-16 21:30N 34°34' E 135°20'3 5.2
2019-Feb-16 21:00N 34°36' E 135°22'5 9.7
2019-Feb-16 20:30N 34°39' E 135°27'1 0.1
2019-Feb-16 05:46N 34°39' E 135°28'0 0.0
2019-Feb-16 04:18N 34°39' E 135°28'0 0.0
2019-Feb-15 23:35N 34°39' E 135°28'0 0.0
2019-Feb-15 21:41N 34°39' E 135°28'0 0.0
2019-Feb-15 20:59N 34°39' E 135°28'0 0.0
2019-Feb-15 17:48N 34°39' E 135°28'0 0.0
2019-Feb-15 12:24N 34°39' E 135°28'0 0.0
2019-Feb-15 08:32N 34°39' E 135°28'0 4.0
2019-Feb-15 08:30N 34°39' E 135°28'4 8.4
2019-Feb-15 08:01N 34°37' E 135°24'4 5.8
2019-Feb-15 07:17N 34°33' E 135°26'1 3.7
2019-Feb-15 06:59N 34°33' E 135°25'2 4.0
2019-Feb-15 06:29N 34°34' E 135°23'0 0.2
2019-Feb-15 05:57N 34°34' E 135°23'3 7.0
2019-Feb-15 05:31N 34°37' E 135°23'4 8.3
2019-Feb-15 05:00N 34°39' E 135°28'0 0.0
2019-Feb-14 14:20N 34°39' E 135°28'3 9.5
2019-Feb-14 14:01N 34°39' E 135°24'1 1.1
2019-Feb-14 13:30N 34°38' E 135°24'1 1.4
2019-Feb-14 13:01N 34°38' E 135°23'2 4.8
2019-Feb-14 12:31N 34°39' E 135°26'2 2.4
2019-Feb-14 11:49N 34°39' E 135°28'0 0.0
2019-Feb-14 10:12N 34°39' E 135°28'0 0.0
2019-Feb-14 09:24N 34°39' E 135°28'0 0.0
2019-Feb-14 07:36N 34°39' E 135°28'0 0.0
2019-Feb-14 07:20N 34°39' E 135°28'0 0.0
2019-Feb-14 07:00N 34°39' E 135°28'0 0.0
2019-Feb-14 06:30N 34°39' E 135°28'3 5.1
2019-Feb-14 06:00N 34°39' E 135°25'5 9.6
2019-Feb-14 05:30N 34°34' E 135°24'2 1.6
2019-Feb-14 04:03N 34°32' E 135°24'0 2.2
2019-Feb-14 04:00N 34°32' E 135°24'1 1.5
2019-Feb-14 02:59N 34°33' E 135°23'0 0.3
2019-Feb-14 02:26N 34°33' E 135°23'2 5.5
2019-Feb-14 02:00N 34°36' E 135°24'0 0.8
2019-Feb-14 01:31N 34°36' E 135°24'0 0.0
2019-Feb-14 01:00N 34°36' E 135°24'0 0.0
2019-Feb-14 00:10N 34°36' E 135°24'0 0.0
2019-Feb-13 23:56N 34°36' E 135°24'0 0.0
2019-Feb-13 23:30N 34°36' E 135°24'0 0.0
2019-Feb-13 23:00N 34°36' E 135°24'0 0.0
2019-Feb-13 22:25N 34°36' E 135°24'1 2.2
2019-Feb-13 22:01N 34°37' E 135°24'3 5.5
2019-Feb-13 21:30N 34°38' E 135°27'0 0.7
2019-Feb-13 20:57N 34°38' E 135°27'0 0.7
2019-Feb-13 20:31N 34°38' E 135°27'1 0.1
2019-Feb-13 06:46N 34°39' E 135°28'0 0.0
2019-Feb-13 06:28N 34°39' E 135°28'1 3.0
2019-Feb-13 06:00N 34°38' E 135°27'0 0.3
2019-Feb-13 05:14N 34°38' E 135°26'0 1.9
2019-Feb-13 05:01N 34°38' E 135°27'0 0.0
2019-Feb-13 04:29N 34°38' E 135°27'0 0.0
2019-Feb-13 03:57N 34°38' E 135°27'0 0.0
2019-Feb-13 03:25N 34°38' E 135°27'1 3.1
2019-Feb-13 03:01N 34°39' E 135°26'5 9.3
2019-Feb-13 02:31N 34°34' E 135°24'2 1.9
2019-Feb-13 01:26N 34°33' E 135°25'1 3.4
2019-Feb-13 01:00N 34°33' E 135°24'4 7.4
2019-Feb-13 00:30N 34°33' E 135°19'  
Track history (hours):
 
Tides and Currents Weather Stations Pressure Air Temp Water Temp Dewpoint Dewpoint Depression Visibility Wind Speed Wind Dir Waves Ship Positions

No 32takemaru

Last reported at 2019-Feb-23 00:00 UTC. Time now 2019-Feb-23 00:22 UTC.
Position N 34°33' E 135°25'.

Length 38 m; draft 2.8 m.

Type: Tug. MMSI: 431000341.

Date/timePositionNaut miles runAvg speedWind from/ knotsBaromVisibWave heightAir tempDewpointWater temp
2019-Feb-23 00:00N 34°33' E 135°25'3 5.5
2019-Feb-22 23:30N 34°33' E 135°21'2 4.5
2019-Feb-22 23:00N 34°34' E 135°19'1 2.4
2019-Feb-22 22:31N 34°35' E 135°20'5 9.7
2019-Feb-22 22:00N 34°38' E 135°24'3 0.2
2019-Feb-22 09:06N 34°39' E 135°28'1 8.1
2019-Feb-22 09:00N 34°39' E 135°27'4 9.0
2019-Feb-22 08:30N 34°35' E 135°23'5 8.4
2019-Feb-22 07:57N 34°31' E 135°23'1 1.9
2019-Feb-22 07:30N 34°31' E 135°24'1 0.1
2019-Feb-22 02:55N 34°32' E 135°24'2 0.7
2019-Feb-22 00:44N 34°33' E 135°24'1 3.7
2019-Feb-22 00:29N 34°33' E 135°23'3 6.8
2019-Feb-22 00:00N 34°34' E 135°19'0 0.7
2019-Feb-21 23:30N 34°34' E 135°19'610.6
2019-Feb-21 22:59N 34°38' E 135°24'3 2.6
2019-Feb-21 21:40N 34°39' E 135°28'0 0.0
2019-Feb-21 21:30N 34°39' E 135°28'0 0.0
2019-Feb-21 08:48N 34°39' E 135°28'3 9.5
2019-Feb-21 08:30N 34°39' E 135°25'510.4
2019-Feb-21 08:01N 34°34' E 135°23'1 1.4
2019-Feb-21 06:57N 34°34' E 135°24'2 3.7
2019-Feb-21 06:31N 34°35' E 135°24'4 7.8
2019-Feb-21 06:00N 34°39' E 135°26'1 0.3
2019-Feb-21 00:57N 34°39' E 135°28'0 0.0
2019-Feb-21 00:28N 34°39' E 135°28'0 0.0
2019-Feb-20 09:01N 34°39' E 135°28'0 7.9
2019-Feb-20 09:01N 34°39' E 135°28'2 3.9
2019-Feb-20 08:31N 34°39' E 135°25'2 3.1
2019-Feb-20 08:01N 34°38' E 135°24'2 3.1
2019-Feb-20 07:31N 34°37' E 135°24'1 1.3
2019-Feb-20 06:59N 34°36' E 135°24'0 0.0
2019-Feb-20 06:31N 34°36' E 135°24'0 0.0
2019-Feb-20 05:58N 34°36' E 135°24'0 0.0
2019-Feb-20 05:31N 34°36' E 135°24'2 4.3
2019-Feb-20 05:01N 34°35' E 135°26'1 1.3
2019-Feb-20 04:29N 34°35' E 135°25'0 0.4
2019-Feb-20 03:52N 34°35' E 135°25'5 5.3
2019-Feb-20 03:01N 34°39' E 135°25'4 8.1
2019-Feb-20 02:30N 34°35' E 135°24'2 1.1
2019-Feb-20 00:30N 34°33' E 135°25'3 6.5
2019-Feb-20 00:01N 34°33' E 135°21'1 2.7
2019-Feb-19 23:30N 34°34' E 135°20'2 4.7
2019-Feb-19 23:00N 34°36' E 135°22'5 9.6
2019-Feb-19 22:30N 34°39' E 135°26'1 0.1
2019-Feb-19 08:55N 34°39' E 135°28'0 0.0
2019-Feb-19 00:12N 34°39' E 135°28'2 9.1
2019-Feb-19 00:00N 34°39' E 135°26'5 9.7
2019-Feb-18 23:31N 34°34' E 135°23'4 4.6
2019-Feb-18 22:44N 34°31' E 135°23'1 4.2
2019-Feb-18 22:28N 34°32' E 135°23'1 2.2
2019-Feb-18 21:59N 34°33' E 135°22'0 0.4
2019-Feb-18 21:26N 34°33' E 135°22'3 7.0
2019-Feb-18 21:00N 34°36' E 135°23'4 8.8
2019-Feb-18 20:31N 34°39' E 135°27'1 0.1
2019-Feb-18 08:58N 34°39' E 135°28'4 8.9
2019-Feb-18 08:31N 34°37' E 135°23'611.4
2019-Feb-18 08:00N 34°32' E 135°23'1 1.6
2019-Feb-18 07:31N 34°31' E 135°23'0 0.2
2019-Feb-18 06:31N 34°31' E 135°23'0 0.4
2019-Feb-18 05:59N 34°31' E 135°23'2 1.6
2019-Feb-18 04:28N 34°33' E 135°25'1 1.4
2019-Feb-18 03:54N 34°33' E 135°25'3 8.0
2019-Feb-18 03:31N 34°33' E 135°21'2 3.5
2019-Feb-18 03:00N 34°34' E 135°19'4 8.5
2019-Feb-18 02:30N 34°33' E 135°24'1 1.6
2019-Feb-18 01:40N 34°33' E 135°26'1 7.6
2019-Feb-18 01:30N 34°33' E 135°24'5 9.9
2019-Feb-18 01:00N 34°38' E 135°24'4 0.2
2019-Feb-17 06:36N 34°39' E 135°28'0 0.0
2019-Feb-17 05:11N 34°39' E 135°28'0 0.0
2019-Feb-17 04:31N 34°39' E 135°28'0 0.0
2019-Feb-17 04:31N 34°39' E 135°28'3 6.3
2019-Feb-17 04:01N 34°38' E 135°24'0 0.5
2019-Feb-17 03:30N 34°38' E 135°24'1 1.9
2019-Feb-17 03:01N 34°37' E 135°23'1 1.9
2019-Feb-17 02:28N 34°36' E 135°24'0 0.0
2019-Feb-17 01:58N 34°36' E 135°24'0 0.0
2019-Feb-17 00:26N 34°36' E 135°24'1 2.4
2019-Feb-17 00:00N 34°35' E 135°24'2 2.0
2019-Feb-16 22:49N 34°33' E 135°25'1 3.0
2019-Feb-16 22:31N 34°33' E 135°24'3 6.2
2019-Feb-16 22:01N 34°33' E 135°21'0 0.8
2019-Feb-16 21:30N 34°34' E 135°20'3 5.2
2019-Feb-16 21:00N 34°36' E 135°22'5 9.7
2019-Feb-16 20:30N 34°39' E 135°27'1 0.1
2019-Feb-16 05:46N 34°39' E 135°28'0 0.0
2019-Feb-16 04:18N 34°39' E 135°28'0 0.0
2019-Feb-15 23:35N 34°39' E 135°28'0 0.0
2019-Feb-15 21:41N 34°39' E 135°28'0 0.0
2019-Feb-15 20:59N 34°39' E 135°28'0 0.0
2019-Feb-15 17:48N 34°39' E 135°28'0 0.0
2019-Feb-15 12:24N 34°39' E 135°28'0 0.0
2019-Feb-15 08:32N 34°39' E 135°28'0 4.0
2019-Feb-15 08:30N 34°39' E 135°28'4 8.4
2019-Feb-15 08:01N 34°37' E 135°24'4 5.8
2019-Feb-15 07:17N 34°33' E 135°26'1 3.7
2019-Feb-15 06:59N 34°33' E 135°25'2 4.0
2019-Feb-15 06:29N 34°34' E 135°23'0 0.2
2019-Feb-15 05:57N 34°34' E 135°23'3 7.0
2019-Feb-15 05:31N 34°37' E 135°23'4 8.3
2019-Feb-15 05:00N 34°39' E 135°28'0 0.0
2019-Feb-14 14:20N 34°39' E 135°28'3 9.5
2019-Feb-14 14:01N 34°39' E 135°24'1 1.1
2019-Feb-14 13:30N 34°38' E 135°24'1 1.4
2019-Feb-14 13:01N 34°38' E 135°23'2 4.8
2019-Feb-14 12:31N 34°39' E 135°26'2 2.4
2019-Feb-14 11:49N 34°39' E 135°28'0 0.0
2019-Feb-14 10:12N 34°39' E 135°28'0 0.0
2019-Feb-14 09:24N 34°39' E 135°28'0 0.0
2019-Feb-14 07:36N 34°39' E 135°28'0 0.0
2019-Feb-14 07:20N 34°39' E 135°28'0 0.0
2019-Feb-14 07:00N 34°39' E 135°28'0 0.0
2019-Feb-14 06:30N 34°39' E 135°28'3 5.1
2019-Feb-14 06:00N 34°39' E 135°25'5 9.6
2019-Feb-14 05:30N 34°34' E 135°24'2 1.6
2019-Feb-14 04:03N 34°32' E 135°24'0 2.2
2019-Feb-14 04:00N 34°32' E 135°24'1 1.5
2019-Feb-14 02:59N 34°33' E 135°23'0 0.3
2019-Feb-14 02:26N 34°33' E 135°23'2 5.5
2019-Feb-14 02:00N 34°36' E 135°24'0 0.8
2019-Feb-14 01:31N 34°36' E 135°24'0 0.0
2019-Feb-14 01:00N 34°36' E 135°24'0 0.0
2019-Feb-14 00:10N 34°36' E 135°24'0 0.0
2019-Feb-13 23:56N 34°36' E 135°24'0 0.0
2019-Feb-13 23:30N 34°36' E 135°24'0 0.0
2019-Feb-13 23:00N 34°36' E 135°24'0 0.0
2019-Feb-13 22:25N 34°36' E 135°24'1 2.2
2019-Feb-13 22:01N 34°37' E 135°24'3 5.5
2019-Feb-13 21:30N 34°38' E 135°27'0 0.7
2019-Feb-13 20:57N 34°38' E 135°27'0 0.7
2019-Feb-13 20:31N 34°38' E 135°27'1 0.1
2019-Feb-13 06:46N 34°39' E 135°28'0 0.0
2019-Feb-13 06:28N 34°39' E 135°28'1 3.0
2019-Feb-13 06:00N 34°38' E 135°27'0 0.3
2019-Feb-13 05:14N 34°38' E 135°26'0 1.9
2019-Feb-13 05:01N 34°38' E 135°27'0 0.0
2019-Feb-13 04:29N 34°38' E 135°27'0 0.0
2019-Feb-13 03:57N 34°38' E 135°27'0 0.0
2019-Feb-13 03:25N 34°38' E 135°27'1 3.1
2019-Feb-13 03:01N 34°39' E 135°26'5 9.3
2019-Feb-13 02:31N 34°34' E 135°24'2 1.9
2019-Feb-13 01:26N 34°33' E 135°25'1 3.4
2019-Feb-13 01:00N 34°33' E 135°24'4 7.4
2019-Feb-13 00:30N 34°33' E 135°19'  

Dump ship's entire track history